createdAt,value
2023-03-31T00:02:22.827Z,99722.03
2023-03-31T00:04:54.902Z,99717.41
2023-03-31T00:07:24.693Z,99717.38
2023-03-31T00:10:00.886Z,99719.00
2023-03-31T00:12:37.044Z,99705.47
2023-03-31T00:15:03.635Z,99706.91
2023-03-31T00:17:33.227Z,99704.63
2023-03-31T00:20:05.590Z,99696.09
2023-03-31T00:22:31.995Z,99691.75
2023-03-31T00:24:58.390Z,99691.94
2023-03-31T00:27:24.820Z,99683.03
2023-03-31T00:29:53.011Z,99677.88
2023-03-31T00:32:19.359Z,99677.00
2023-03-31T00:34:46.494Z,99674.53
2023-03-31T00:37:14.707Z,99659.63
2023-03-31T00:39:41.390Z,99660.00
2023-03-31T00:42:12.937Z,99661.03
2023-03-31T00:45:08.032Z,99672.19
2023-03-31T00:47:34.679Z,99662.00
2023-03-31T00:50:01.068Z,99656.19
2023-03-31T00:52:35.624Z,99661.97
2023-03-31T00:55:07.567Z,99657.19
2023-03-31T00:57:39.253Z,99647.00
2023-03-31T01:00:16.127Z,99647.41
2023-03-31T01:02:55.442Z,99641.59
2023-03-31T01:05:25.971Z,99633.91
2023-03-31T01:07:54.284Z,99632.44
2023-03-31T01:10:21.748Z,99624.78
2023-03-31T01:12:53.523Z,99618.75
2023-03-31T01:15:20.348Z,99616.47
2023-03-31T01:17:50.188Z,99610.44
2023-03-31T01:20:58.757Z,99607.94
2023-03-31T01:23:55.914Z,99602.13
2023-03-31T01:26:38.574Z,99600.66
2023-03-31T01:29:42.822Z,99596.50
2023-03-31T01:32:53.902Z,99590.47
2023-03-31T01:35:45.147Z,99586.13
2023-03-31T01:38:57.204Z,99577.25
2023-03-31T01:41:58.157Z,99577.25
2023-03-31T01:44:41.035Z,99568.31
2023-03-31T01:47:22.884Z,99571.00
2023-03-31T01:50:06.542Z,99563.81
2023-03-31T01:52:49.953Z,99563.59
2023-03-31T01:55:24.517Z,99555.53
2023-03-31T01:57:55.011Z,99548.94
2023-03-31T02:00:29.633Z,99550.38
2023-03-31T02:03:08.343Z,99539.22
2023-03-31T02:05:41.101Z,99539.69
2023-03-31T02:08:19.782Z,99540.13
2023-03-31T02:10:48.143Z,99531.66
2023-03-31T02:13:17.188Z,99528.16
2023-03-31T02:15:48.741Z,99522.19
2023-03-31T02:18:18.664Z,99517.25
2023-03-31T02:20:49.144Z,99511.25
2023-03-31T02:23:19.984Z,99508.78
2023-03-31T02:25:53.491Z,99505.50
2023-03-31T02:28:26.594Z,99499.72
2023-03-31T02:31:14.273Z,99502.00
2023-03-31T02:33:41.323Z,99493.34
2023-03-31T02:36:08.730Z,99490.22
2023-03-31T02:38:57.480Z,99488.00
2023-03-31T02:41:24.013Z,99477.81
2023-03-31T02:43:50.769Z,99481.16
2023-03-31T02:46:17.294Z,99471.84
2023-03-31T02:48:48.954Z,99458.81
2023-03-31T02:51:38.626Z,99462.13
2023-03-31T02:54:20.498Z,99456.31
2023-03-31T02:57:05.895Z,99449.91
2023-03-31T02:59:49.627Z,99456.75
2023-03-31T03:02:31.020Z,99447.63
2023-03-31T03:05:28.339Z,99437.69
2023-03-31T03:08:13.452Z,99436.03
2023-03-31T03:11:07.004Z,99427.97
2023-03-31T03:13:42.555Z,99417.19
2023-03-31T03:16:19.894Z,99412.84
2023-03-31T03:19:00.656Z,99402.09
2023-03-31T03:21:27.891Z,99390.47
2023-03-31T03:23:54.853Z,99389.63
2023-03-31T03:26:23.539Z,99387.78
2023-03-31T03:28:51.387Z,99384.88
2023-03-31T03:31:17.909Z,99379.31
2023-03-31T03:33:44.441Z,99382.81
2023-03-31T03:36:11.174Z,99365.63
2023-03-31T03:38:37.739Z,99352.78
2023-03-31T03:41:04.703Z,99350.09
2023-03-31T03:43:31.125Z,99336.63
2023-03-31T03:45:57.572Z,99336.81
2023-03-31T03:48:23.979Z,99317.97
2023-03-31T03:50:50.728Z,99313.44
2023-03-31T03:53:17.171Z,99300.19
2023-03-31T03:55:44.993Z,99306.38
2023-03-31T03:58:11.570Z,99302.88
2023-03-31T04:00:37.912Z,99292.91
2023-03-31T04:03:04.365Z,99284.03
2023-03-31T04:05:31.139Z,99281.13
2023-03-31T04:07:57.625Z,99277.41
2023-03-31T04:10:24.256Z,99273.06
2023-03-31T04:12:51.073Z,99276.34
2023-03-31T04:15:17.624Z,99264.97
2023-03-31T04:17:48.634Z,99270.38
2023-03-31T04:20:15.177Z,99272.22
2023-03-31T04:22:41.701Z,99269.31
2023-03-31T04:25:14.756Z,99270.13
2023-03-31T04:27:50.748Z,99268.50
2023-03-31T04:30:22.906Z,99254.22
2023-03-31T04:32:54.954Z,99251.72
2023-03-31T04:35:28.236Z,99239.06
2023-03-31T04:37:59.211Z,99235.75
2023-03-31T04:40:26.177Z,99228.72
2023-03-31T04:42:52.561Z,99223.53
2023-03-31T04:45:18.951Z,99217.34
2023-03-31T04:47:45.395Z,99210.31
2023-03-31T04:50:15.327Z,99209.50
2023-03-31T04:52:43.208Z,99211.31
2023-03-31T04:55:10.398Z,99214.88
2023-03-31T04:57:37.185Z,99213.19
2023-03-31T05:00:07.823Z,99208.63
2023-03-31T05:02:35.030Z,99204.09
2023-03-31T05:05:01.567Z,99188.97
2023-03-31T05:07:28.042Z,99182.75
2023-03-31T05:09:54.406Z,99186.28
2023-03-31T05:12:20.923Z,99167.44
2023-03-31T05:14:47.308Z,99167.44
2023-03-31T05:17:13.691Z,99165.56
2023-03-31T05:19:40.273Z,99163.91
2023-03-31T05:22:06.720Z,99160.19
2023-03-31T05:24:33.187Z,99159.16
2023-03-31T05:26:59.604Z,99157.50
2023-03-31T05:29:26.149Z,99149.41
2023-03-31T05:31:53.913Z,99151.09
2023-03-31T05:34:20.863Z,99151.91
2023-03-31T05:36:53.469Z,99148.38
2023-03-31T05:39:19.890Z,99142.78
2023-03-31T05:41:46.291Z,99135.75
2023-03-31T05:44:12.926Z,99133.88
2023-03-31T05:46:39.318Z,99129.31
2023-03-31T05:49:07.005Z,99129.13
2023-03-31T05:51:33.804Z,99130.16
2023-03-31T05:54:00.205Z,99129.94
2023-03-31T05:56:27.478Z,99110.06
2023-03-31T05:58:53.927Z,99106.31
2023-03-31T06:01:22.730Z,99094.50
2023-03-31T06:03:49.905Z,99088.31
2023-03-31T06:06:19.441Z,99086.44
2023-03-31T06:08:47.240Z,99084.34
2023-03-31T06:11:19.489Z,99074.00
2023-03-31T06:13:46.238Z,99066.94
2023-03-31T06:16:14.995Z,99060.31
2023-03-31T06:18:41.710Z,99055.75
2023-03-31T06:21:11.119Z,99046.66
2023-03-31T06:23:37.633Z,99047.47
2023-03-31T06:26:08.043Z,99036.47
2023-03-31T06:28:35.861Z,99021.34
2023-03-31T06:31:07.791Z,99024.66
2023-03-31T06:33:35.665Z,99015.78
2023-03-31T06:36:05.464Z,99017.59
2023-03-31T06:38:33.313Z,99018.47
2023-03-31T06:40:59.722Z,99007.69
2023-03-31T06:43:26.218Z,99000.44
2023-03-31T06:45:54.067Z,98993.59
2023-03-31T06:48:21.514Z,98995.63
2023-03-31T06:50:48.056Z,98992.28
2023-03-31T06:53:14.469Z,98995.53
2023-03-31T06:55:41.017Z,98988.44
2023-03-31T06:58:07.467Z,98983.03
2023-03-31T07:00:34.314Z,98980.25
2023-03-31T07:03:01.837Z,98978.59
2023-03-31T07:05:37.625Z,98974.19
2023-03-31T07:08:04.665Z,98976.44
2023-03-31T07:10:34.217Z,98966.03
2023-03-31T07:13:01.411Z,98965.81
2023-03-31T07:15:28.692Z,98962.88
2023-03-31T07:18:02.495Z,98955.41
2023-03-31T07:20:30.637Z,98962.47
2023-03-31T07:22:57.096Z,98954.13
2023-03-31T07:25:23.640Z,98951.22
2023-03-31T07:27:50.166Z,98942.91
2023-03-31T07:30:19.078Z,98954.09
2023-03-31T07:32:49.819Z,98952.81
2023-03-31T07:35:17.231Z,98942.63
2023-03-31T07:37:47.063Z,98941.13
2023-03-31T07:40:16.676Z,98936.97
2023-03-31T07:42:43.525Z,98939.41
2023-03-31T07:45:10.779Z,98938.13
2023-03-31T07:47:38.474Z,98932.75
2023-03-31T07:50:06.297Z,98927.34
2023-03-31T07:52:32.713Z,98925.72
2023-03-31T07:54:59.142Z,98935.66
2023-03-31T07:57:26.126Z,98927.81
2023-03-31T07:59:52.605Z,98924.50
2023-03-31T08:02:38.209Z,98926.59
2023-03-31T08:05:06.621Z,98928.47
2023-03-31T08:07:37.236Z,98920.63
2023-03-31T08:10:05.768Z,98918.13
2023-03-31T08:12:32.253Z,98908.00
2023-03-31T08:14:59.017Z,98921.72
2023-03-31T08:17:25.596Z,98918.06
2023-03-31T08:19:52.086Z,98922.25
2023-03-31T08:22:18.517Z,98915.88
2023-03-31T08:24:44.934Z,98917.59
2023-03-31T08:27:12.548Z,98906.66
2023-03-31T08:29:39.241Z,98915.19
2023-03-31T08:32:07.081Z,98912.09
2023-03-31T08:34:33.759Z,98907.75
2023-03-31T08:37:00.173Z,98906.09
2023-03-31T08:39:27.240Z,98908.56
2023-03-31T08:42:12.199Z,98909.38
2023-03-31T08:44:48.476Z,98895.72
2023-03-31T08:47:20.150Z,98903.78
2023-03-31T08:49:53.646Z,98897.94
2023-03-31T08:52:27.123Z,98901.25
2023-03-31T08:54:59.107Z,98888.41
2023-03-31T08:57:42.572Z,98898.72
2023-03-31T09:00:25.314Z,98898.88
2023-03-31T09:03:08.115Z,98896.34
2023-03-31T09:05:58.978Z,98887.81
2023-03-31T09:08:42.205Z,98893.94
2023-03-31T09:11:20.109Z,98892.06
2023-03-31T09:14:05.057Z,98885.84
2023-03-31T09:16:57.815Z,98884.00
2023-03-31T09:19:37.151Z,98881.50
2023-03-31T09:22:08.485Z,98872.81
2023-03-31T09:24:46.098Z,98886.53
2023-03-31T09:27:12.850Z,98907.69
2023-03-31T09:30:04.769Z,98887.19
2023-03-31T09:32:32.912Z,98876.25
2023-03-31T09:35:23.052Z,98869.06
2023-03-31T09:37:50.511Z,98875.56
2023-03-31T09:40:27.893Z,98872.94
2023-03-31T09:42:59.331Z,98876.53
2023-03-31T09:45:26.099Z,98869.53
2023-03-31T09:47:56.957Z,98869.38
2023-03-31T09:50:25.325Z,98860.94
2023-03-31T09:53:00.773Z,98860.94
2023-03-31T09:55:44.930Z,98865.47
2023-03-31T09:58:15.469Z,98856.38
2023-03-31T10:00:44.453Z,98863.38
2023-03-31T10:03:13.853Z,98855.91
2023-03-31T10:05:51.190Z,98854.66
2023-03-31T10:08:17.562Z,98840.97
2023-03-31T10:10:50.340Z,98841.34
2023-03-31T10:13:21.182Z,98840.91
2023-03-31T10:15:48.670Z,98834.47
2023-03-31T10:18:18.751Z,98840.44
2023-03-31T10:20:58.791Z,98840.00
2023-03-31T10:23:30.045Z,98832.53
2023-03-31T10:25:56.737Z,98833.94
2023-03-31T10:28:23.479Z,98828.34
2023-03-31T10:30:56.142Z,98828.72
2023-03-31T10:33:25.661Z,98828.25
2023-03-31T10:36:00.503Z,98818.91
2023-03-31T10:38:31.746Z,98822.81
2023-03-31T10:40:59.824Z,98816.97
2023-03-31T10:43:50.065Z,98826.03
2023-03-31T10:46:16.526Z,98815.63
2023-03-31T10:48:44.512Z,98819.50
2023-03-31T10:51:20.022Z,98820.25
2023-03-31T10:53:51.555Z,98817.72
2023-03-31T10:56:41.836Z,98817.84
2023-03-31T10:59:42.201Z,98816.94
2023-03-31T11:02:27.302Z,98815.19
2023-03-31T11:05:13.382Z,98809.72
2023-03-31T11:07:39.864Z,98803.41
2023-03-31T11:10:21.267Z,98793.34
2023-03-31T11:13:26.201Z,98792.22
2023-03-31T11:16:16.537Z,98787.78
2023-03-31T11:18:55.333Z,98784.16
2023-03-31T11:22:01.621Z,98782.78
2023-03-31T11:24:36.224Z,98787.25
2023-03-31T11:27:27.519Z,98787.38
2023-03-31T11:30:03.929Z,98783.16
2023-03-31T11:33:02.759Z,98781.66
2023-03-31T11:35:44.134Z,98774.72
2023-03-31T11:38:21.707Z,98769.91
2023-03-31T11:40:56.418Z,98768.88
2023-03-31T11:43:49.689Z,98765.09
2023-03-31T11:46:16.057Z,98773.66
2023-03-31T11:48:51.069Z,98770.97
2023-03-31T11:51:24.809Z,98773.66
2023-03-31T11:53:54.476Z,98763.09
2023-03-31T11:56:23.123Z,98754.78
2023-03-31T11:58:56.052Z,98754.88
2023-03-31T12:01:33.706Z,98758.31
2023-03-31T12:04:11.519Z,98756.88
2023-03-31T12:06:42.579Z,98758.41
2023-03-31T12:09:21.080Z,98751.81
2023-03-31T12:12:12.118Z,98756.88
2023-03-31T12:15:03.270Z,98744.88
2023-03-31T12:17:29.889Z,98744.16
2023-03-31T12:20:02.134Z,98734.03
2023-03-31T12:22:34.077Z,98726.63
2023-03-31T12:25:00.527Z,98727.56
2023-03-31T12:27:34.120Z,98727.19
2023-03-31T12:30:04.774Z,98709.75
2023-03-31T12:32:36.313Z,98706.22
2023-03-31T12:35:08.375Z,98705.06
2023-03-31T12:37:34.722Z,98707.25
2023-03-31T12:40:16.704Z,98699.13
2023-03-31T12:42:49.300Z,98702.34
2023-03-31T12:45:28.202Z,98707.44
2023-03-31T12:48:03.465Z,98713.06
2023-03-31T12:50:40.736Z,98709.56
2023-03-31T12:53:09.929Z,98705.00
2023-03-31T12:55:47.952Z,98697.13
2023-03-31T12:58:24.727Z,98698.94
2023-03-31T13:01:10.571Z,98702.03
2023-03-31T13:03:42.883Z,98695.63
2023-03-31T13:06:33.403Z,98699.22
2023-03-31T13:09:12.223Z,98694.97
2023-03-31T13:11:53.166Z,98706.16
2023-03-31T13:14:31.813Z,98708.72
2023-03-31T13:17:13.434Z,98699.91
2023-03-31T13:19:42.684Z,98704.16
2023-03-31T13:22:28.696Z,98696.31
2023-03-31T13:25:30.018Z,98694.41
2023-03-31T13:27:58.390Z,98692.53
2023-03-31T13:30:37.027Z,98689.09
2023-03-31T13:33:37.160Z,98685.91
2023-03-31T13:36:06.598Z,98690.00
2023-03-31T13:38:59.629Z,98680.66
2023-03-31T13:41:47.950Z,98691.31
2023-03-31T13:44:27.117Z,98693.88
2023-03-31T13:47:18.317Z,98696.19
2023-03-31T13:50:22.332Z,98692.25
2023-03-31T13:53:23.088Z,98690.44
2023-03-31T13:56:13.152Z,98690.53
2023-03-31T13:59:11.531Z,98687.09
2023-03-31T14:01:59.830Z,98698.25
2023-03-31T14:04:57.024Z,98696.72
2023-03-31T14:07:43.946Z,98678.06
2023-03-31T14:10:37.252Z,98690.06
2023-03-31T14:13:14.950Z,98680.94
2023-03-31T14:15:52.988Z,98683.97
2023-03-31T14:18:34.146Z,98674.28
2023-03-31T14:21:26.543Z,98678.69
2023-03-31T14:24:11.203Z,98671.44
2023-03-31T14:26:50.260Z,98665.56
2023-03-31T14:29:47.902Z,98666.19
2023-03-31T14:32:43.219Z,98660.59
2023-03-31T14:35:38.891Z,98655.78
2023-03-31T14:38:21.057Z,98652.66
2023-03-31T14:40:56.116Z,98653.53
2023-03-31T14:43:33.660Z,98644.63
2023-03-31T14:46:08.302Z,98646.34
2023-03-31T14:48:45.016Z,98646.91
2023-03-31T14:51:14.548Z,98643.34
2023-03-31T14:53:41.240Z,98636.06
2023-03-31T14:56:12.347Z,98636.59
2023-03-31T14:58:48.648Z,98634.97
2023-03-31T15:01:18.913Z,98637.69
2023-03-31T15:03:46.891Z,98633.34
2023-03-31T15:06:14.552Z,98623.56
2023-03-31T15:08:42.152Z,98631.69
2023-03-31T15:11:15.019Z,98623.56
2023-03-31T15:13:56.691Z,98629.56
2023-03-31T15:16:35.996Z,98616.56
2023-03-31T15:19:11.747Z,98626.31
2023-03-31T15:21:39.106Z,98616.88
2023-03-31T15:24:06.400Z,98613.91
2023-03-31T15:26:41.561Z,98612.56
2023-03-31T15:29:14.595Z,98607.69
2023-03-31T15:31:41.692Z,98612.88
2023-03-31T15:34:19.370Z,98608.63
2023-03-31T15:36:45.853Z,98596.94
2023-03-31T15:39:14.526Z,98589.03
2023-03-31T15:41:42.818Z,98574.91
2023-03-31T15:44:29.701Z,98587.91
2023-03-31T15:47:29.642Z,98593.03
2023-03-31T15:50:08.052Z,98579.94
2023-03-31T15:52:38.318Z,98591.22
2023-03-31T15:55:22.955Z,98596.28
2023-03-31T15:57:50.818Z,98580.16
2023-03-31T16:00:43.092Z,98596.06
2023-03-31T16:03:14.762Z,98604.34
2023-03-31T16:05:54.586Z,98614.25
2023-03-31T16:08:31.260Z,98616.00
2023-03-31T16:11:33.592Z,98610.69
2023-03-31T16:14:06.094Z,98607.84
2023-03-31T16:16:33.253Z,98613.66
2023-03-31T16:19:09.904Z,98609.81
2023-03-31T16:21:43.377Z,98607.03
2023-03-31T16:24:10.285Z,98611.28
2023-03-31T16:26:37.609Z,98612.88
2023-03-31T16:29:05.193Z,98609.00
2023-03-31T16:31:40.652Z,98605.16
2023-03-31T16:34:09.613Z,98610.22
2023-03-31T16:36:36.449Z,98605.56
2023-03-31T16:39:11.636Z,98609.81
2023-03-31T16:41:38.353Z,98600.00
2023-03-31T16:44:06.271Z,98599.91
2023-03-31T16:46:32.967Z,98598.16
2023-03-31T16:48:59.385Z,98580.50
2023-03-31T16:51:26.242Z,98584.16
2023-03-31T16:53:52.608Z,98589.47
2023-03-31T16:56:19.080Z,98588.56
2023-03-31T16:58:45.563Z,98584.72
2023-03-31T17:01:12.543Z,98578.38
2023-03-31T17:03:41.628Z,98580.19
2023-03-31T17:06:12.982Z,98576.31
2023-03-31T17:08:39.982Z,98586.22
2023-03-31T17:11:12.537Z,98592.06
2023-03-31T17:13:40.633Z,98582.03
2023-03-31T17:16:16.070Z,98580.84
2023-03-31T17:18:48.559Z,98585.44
2023-03-31T17:21:18.224Z,98579.72
2023-03-31T17:23:46.450Z,98585.56
2023-03-31T17:26:13.840Z,98583.59
2023-03-31T17:28:41.002Z,98589.72
2023-03-31T17:31:16.707Z,98587.75
2023-03-31T17:33:43.646Z,98585.19
2023-03-31T17:36:11.149Z,98594.81
2023-03-31T17:38:38.990Z,98603.63
2023-03-31T17:41:07.309Z,98607.06
2023-03-31T17:43:35.259Z,98601.56
2023-03-31T17:46:09.893Z,98610.09
2023-03-31T17:48:38.567Z,98611.06
2023-03-31T17:51:10.282Z,98608.03
2023-03-31T17:53:36.713Z,98615.22
2023-03-31T17:56:04.292Z,98622.13
2023-03-31T17:58:31.307Z,98620.97
2023-03-31T18:00:58.416Z,98618.16
2023-03-31T18:03:27.444Z,98621.06
2023-03-31T18:05:53.873Z,98626.94
2023-03-31T18:08:20.300Z,98621.19
2023-03-31T18:10:46.789Z,98616.25
2023-03-31T18:13:13.405Z,98618.41
2023-03-31T18:15:45.410Z,98619.69
2023-03-31T18:18:11.839Z,98620.97
2023-03-31T18:20:38.240Z,98624.09
2023-03-31T18:23:04.619Z,98619.41
2023-03-31T18:25:31.220Z,98626.91
2023-03-31T18:27:57.619Z,98629.25
2023-03-31T18:30:24.214Z,98625.16
2023-03-31T18:32:50.862Z,98627.47
2023-03-31T18:35:17.533Z,98629.56
2023-03-31T18:38:03.250Z,98620.91
2023-03-31T18:40:30.053Z,98633.22
2023-03-31T18:42:56.700Z,98640.97
2023-03-31T18:45:23.546Z,98642.25
2023-03-31T18:47:50.672Z,98636.25
2023-03-31T18:50:17.531Z,98635.66
2023-03-31T18:52:43.879Z,98630.50
2023-03-31T18:55:10.463Z,98631.53
2023-03-31T18:57:36.852Z,98635.31
2023-03-31T19:00:05.457Z,98635.31
2023-03-31T19:02:32.167Z,98638.00
2023-03-31T19:04:58.838Z,98636.13
2023-03-31T19:07:25.195Z,98635.31
2023-03-31T19:09:51.537Z,98632.38
2023-03-31T19:12:17.965Z,98637.75
2023-03-31T19:14:44.357Z,98634.03
2023-03-31T19:17:11.700Z,98640.00
2023-03-31T19:19:38.114Z,98640.00
2023-03-31T19:22:05.009Z,98633.78
2023-03-31T19:24:31.664Z,98634.03
2023-03-31T19:26:58.404Z,98644.22
2023-03-31T19:29:27.388Z,98636.59
2023-03-31T19:31:53.845Z,98633.31
2023-03-31T19:34:20.367Z,98630.84
2023-03-31T19:36:46.781Z,98632.94
2023-03-31T19:39:13.408Z,98636.94
2023-03-31T19:41:39.855Z,98629.06
2023-03-31T19:44:06.345Z,98627.66
2023-03-31T19:46:32.992Z,98634.09
2023-03-31T19:48:59.575Z,98623.78
2023-03-31T19:51:27.680Z,98628.09
2023-03-31T19:53:54.468Z,98620.25
2023-03-31T19:56:25.028Z,98620.25
2023-03-31T19:58:52.453Z,98622.13
2023-03-31T20:01:24.671Z,98621.09
2023-03-31T20:03:55.842Z,98620.50
2023-03-31T20:06:26.629Z,98612.41
2023-03-31T20:08:55.417Z,98621.56
2023-03-31T20:11:22.106Z,98615.56
2023-03-31T20:13:48.984Z,98610.38
2023-03-31T20:16:19.020Z,98609.56
2023-03-31T20:18:50.876Z,98614.16
2023-03-31T20:21:19.583Z,98609.78
2023-03-31T20:23:46.819Z,98615.44
2023-03-31T20:26:16.526Z,98608.38
2023-03-31T20:28:43.546Z,98606.97
2023-03-31T20:31:13.192Z,98619.03
2023-03-31T20:33:40.222Z,98602.50
2023-03-31T20:36:09.503Z,98608.94
2023-03-31T20:38:37.728Z,98607.53
2023-03-31T20:41:04.127Z,98609.63
2023-03-31T20:43:30.558Z,98614.41
2023-03-31T20:46:03.889Z,98602.22
2023-03-31T20:48:39.610Z,98617.38
2023-03-31T20:51:08.664Z,98606.19
2023-03-31T20:53:41.645Z,98603.50
2023-03-31T20:56:12.140Z,98615.34
2023-03-31T20:58:41.041Z,98608.28
2023-03-31T21:01:09.486Z,98612.88
2023-03-31T21:03:36.464Z,98605.03
2023-03-31T21:06:05.447Z,98611.22
2023-03-31T21:08:32.537Z,98614.16
2023-03-31T21:10:59.363Z,98612.50
2023-03-31T21:13:26.903Z,98610.88
2023-03-31T21:15:56.690Z,98611.91
2023-03-31T21:18:23.543Z,98609.47
2023-03-31T21:20:57.395Z,98614.59
2023-03-31T21:23:25.039Z,98616.69
2023-03-31T21:25:54.454Z,98613.19
2023-03-31T21:28:25.281Z,98615.06
2023-03-31T21:30:56.043Z,98613.44
2023-03-31T21:33:24.194Z,98614.47
2023-03-31T21:35:51.905Z,98612.84
2023-03-31T21:38:19.834Z,98612.00
2023-03-31T21:40:48.002Z,98612.22
2023-03-31T21:43:15.054Z,98605.22
2023-03-31T21:45:41.797Z,98608.13
2023-03-31T21:48:10.913Z,98611.88
2023-03-31T21:50:39.982Z,98604.59
2023-03-31T21:53:07.829Z,98610.00
2023-03-31T21:55:37.257Z,98608.34
2023-03-31T21:58:04.807Z,98605.88
2023-03-31T22:00:31.943Z,98605.88
2023-03-31T22:03:16.107Z,98616.06
2023-03-31T22:05:45.151Z,98612.56
2023-03-31T22:08:11.870Z,98613.81
2023-03-31T22:10:38.257Z,98616.16
2023-03-31T22:13:04.735Z,98622.81
2023-03-31T22:15:31.478Z,98619.50
2023-03-31T22:17:58.109Z,98616.41
2023-03-31T22:20:24.616Z,98620.63
2023-03-31T22:22:51.296Z,98616.50
2023-03-31T22:25:17.703Z,98618.59
2023-03-31T22:27:44.059Z,98626.91
2023-03-31T22:30:10.914Z,98621.94
2023-03-31T22:32:37.415Z,98629.22
2023-03-31T22:35:04.030Z,98614.34
2023-03-31T22:37:30.597Z,98629.66
2023-03-31T22:39:57.009Z,98626.16
2023-03-31T22:42:23.639Z,98622.66
2023-03-31T22:44:50.384Z,98623.47
2023-03-31T22:47:17.453Z,98622.66
2023-03-31T22:49:43.881Z,98630.72
2023-03-31T22:52:10.918Z,98624.50
2023-03-31T22:54:40.059Z,98633.41
2023-03-31T22:57:06.958Z,98629.88
2023-03-31T22:59:34.065Z,98625.56
2023-03-31T23:02:00.406Z,98630.94
2023-03-31T23:04:27.379Z,98630.94
2023-03-31T23:06:55.114Z,98633.63
2023-03-31T23:09:23.566Z,98636.31
2023-03-31T23:11:50.583Z,98635.25
2023-03-31T23:14:17.322Z,98635.50
2023-03-31T23:16:44.057Z,98637.94
2023-03-31T23:19:11.940Z,98633.63
2023-03-31T23:21:38.801Z,98634.44
2023-03-31T23:24:05.735Z,98628.25
2023-03-31T23:26:33.802Z,98629.88
2023-03-31T23:29:00.558Z,98625.34
2023-03-31T23:31:29.222Z,98625.91
2023-03-31T23:33:57.812Z,98626.75
2023-03-31T23:36:25.778Z,98617.63
2023-03-31T23:38:54.258Z,98621.94
2023-03-31T23:41:22.799Z,98617.63
2023-03-31T23:43:50.913Z,98614.94
2023-03-31T23:46:17.713Z,98622.78
2023-03-31T23:48:44.726Z,98620.31
2023-03-31T23:51:12.120Z,98614.94
2023-03-31T23:53:38.543Z,98618.69
2023-03-31T23:56:08.852Z,98610.59
2023-03-31T23:58:35.740Z,98612.69
